sensor_id;sensor_type;location;lat;lon;timestamp;P1;durP1;ratioP1;P2;durP2;ratioP2
11675;SDS011;5894;42.768;23.404;2023-03-01T00:01:33;7.57;;;4.17;;
11675;SDS011;5894;42.768;23.404;2023-03-01T00:03:59;4.13;;;2.97;;
11675;SDS011;5894;42.768;23.404;2023-03-01T00:06:27;4.23;;;2.97;;
11675;SDS011;5894;42.768;23.404;2023-03-01T00:08:53;3.70;;;2.90;;
11675;SDS011;5894;42.768;23.404;2023-03-01T00:11:21;2.73;;;2.03;;
11675;SDS011;5894;42.768;23.404;2023-03-01T00:13:50;2.83;;;2.53;;
11675;SDS011;5894;42.768;23.404;2023-03-01T00:16:21;2.63;;;1.80;;
11675;SDS011;5894;42.768;23.404;2023-03-01T00:18:49;1.80;;;1.57;;
11675;SDS011;5894;42.768;23.404;2023-03-01T00:21:16;2.33;;;1.33;;
11675;SDS011;5894;42.768;23.404;2023-03-01T00:23:44;1.33;;;1.07;;
11675;SDS011;5894;42.768;23.404;2023-03-01T00:26:11;2.90;;;1.80;;
11675;SDS011;5894;42.768;23.404;2023-03-01T00:28:39;3.87;;;1.63;;
11675;SDS011;5894;42.768;23.404;2023-03-01T00:31:07;3.50;;;1.77;;
11675;SDS011;5894;42.768;23.404;2023-03-01T00:33:36;0.90;;;0.80;;
11675;SDS011;5894;42.768;23.404;2023-03-01T00:36:04;1.00;;;0.90;;
11675;SDS011;5894;42.768;23.404;2023-03-01T00:38:34;1.23;;;1.13;;
11675;SDS011;5894;42.768;23.404;2023-03-01T00:41:03;1.53;;;1.43;;
11675;SDS011;5894;42.768;23.404;2023-03-01T00:43:31;6.93;;;4.53;;
11675;SDS011;5894;42.768;23.404;2023-03-01T00:46:01;13.03;;;7.53;;
11675;SDS011;5894;42.768;23.404;2023-03-01T00:48:28;6.57;;;3.90;;
11675;SDS011;5894;42.768;23.404;2023-03-01T00:50:57;3.67;;;3.00;;
11675;SDS011;5894;42.768;23.404;2023-03-01T00:53:30;2.50;;;2.27;;
11675;SDS011;5894;42.768;23.404;2023-03-01T00:55:57;3.33;;;2.70;;
11675;SDS011;5894;42.768;23.404;2023-03-01T00:58:24;3.10;;;2.60;;
11675;SDS011;5894;42.768;23.404;2023-03-01T01:00:51;2.47;;;2.23;;
11675;SDS011;5894;42.768;23.404;2023-03-01T01:03:18;2.10;;;1.90;;
11675;SDS011;5894;42.768;23.404;2023-03-01T01:05:45;2.03;;;1.73;;
11675;SDS011;5894;42.768;23.404;2023-03-01T01:08:13;2.50;;;1.70;;
11675;SDS011;5894;42.768;23.404;2023-03-01T01:10:40;1.93;;;1.70;;
11675;SDS011;5894;42.768;23.404;2023-03-01T01:13:09;2.03;;;1.83;;
11675;SDS011;5894;42.768;23.404;2023-03-01T01:15:36;2.63;;;2.00;;
11675;SDS011;5894;42.768;23.404;2023-03-01T01:18:03;2.33;;;1.83;;
11675;SDS011;5894;42.768;23.404;2023-03-01T01:20:30;2.50;;;2.20;;
11675;SDS011;5894;42.768;23.404;2023-03-01T01:22:57;2.00;;;1.70;;
11675;SDS011;5894;42.768;23.404;2023-03-01T01:25:25;2.00;;;1.80;;
11675;SDS011;5894;42.768;23.404;2023-03-01T01:27:53;2.57;;;1.90;;
11675;SDS011;5894;42.768;23.404;2023-03-01T01:30:20;2.10;;;1.90;;
11675;SDS011;5894;42.768;23.404;2023-03-01T01:32:46;1.90;;;1.80;;
11675;SDS011;5894;42.768;23.404;2023-03-01T01:35:13;2.20;;;1.90;;
11675;SDS011;5894;42.768;23.404;2023-03-01T01:37:40;1.97;;;1.67;;
11675;SDS011;5894;42.768;23.404;2023-03-01T01:40:09;1.10;;;1.00;;
11675;SDS011;5894;42.768;23.404;2023-03-01T01:42:38;1.33;;;1.23;;
11675;SDS011;5894;42.768;23.404;2023-03-01T01:47:59;2.20;;;1.63;;
11675;SDS011;5894;42.768;23.404;2023-03-01T01:50:28;1.00;;;0.90;;
11675;SDS011;5894;42.768;23.404;2023-03-01T01:53:04;2.20;;;0.90;;
11675;SDS011;5894;42.768;23.404;2023-03-01T01:55:33;1.13;;;1.00;;
11675;SDS011;5894;42.768;23.404;2023-03-01T01:58:05;2.20;;;1.30;;
11675;SDS011;5894;42.768;23.404;2023-03-01T02:00:35;1.23;;;1.13;;
11675;SDS011;5894;42.768;23.404;2023-03-01T02:03:04;1.10;;;1.00;;
11675;SDS011;5894;42.768;23.404;2023-03-01T02:05:36;1.23;;;1.10;;
11675;SDS011;5894;42.768;23.404;2023-03-01T02:08:10;1.10;;;1.00;;
11675;SDS011;5894;42.768;23.404;2023-03-01T02:10:39;1.10;;;1.00;;
11675;SDS011;5894;42.768;23.404;2023-03-01T02:13:10;1.30;;;1.17;;
11675;SDS011;5894;42.768;23.404;2023-03-01T02:15:38;1.10;;;1.00;;
11675;SDS011;5894;42.768;23.404;2023-03-01T02:18:06;1.10;;;1.00;;
11675;SDS011;5894;42.768;23.404;2023-03-01T02:20:38;1.63;;;1.30;;
11675;SDS011;5894;42.768;23.404;2023-03-01T02:23:11;1.50;;;1.17;;
11675;SDS011;5894;42.768;23.404;2023-03-01T02:25:41;1.10;;;1.00;;
11675;SDS011;5894;42.768;23.404;2023-03-01T02:28:23;1.63;;;0.93;;
11675;SDS011;5894;42.768;23.404;2023-03-01T02:30:56;1.10;;;0.83;;
11675;SDS011;5894;42.768;23.404;2023-03-01T02:33:40;1.40;;;1.00;;
11675;SDS011;5894;42.768;23.404;2023-03-01T02:36:11;1.00;;;0.90;;
11675;SDS011;5894;42.768;23.404;2023-03-01T02:38:41;0.90;;;0.90;;
11675;SDS011;5894;42.768;23.404;2023-03-01T02:41:08;0.80;;;0.70;;
11675;SDS011;5894;42.768;23.404;2023-03-01T02:43:39;1.07;;;0.70;;
11675;SDS011;5894;42.768;23.404;2023-03-01T02:46:06;2.30;;;1.30;;
11675;SDS011;5894;42.768;23.404;2023-03-01T02:48:41;1.00;;;0.90;;
11675;SDS011;5894;42.768;23.404;2023-03-01T02:51:11;0.83;;;0.70;;
11675;SDS011;5894;42.768;23.404;2023-03-01T02:53:51;0.57;;;0.57;;
11675;SDS011;5894;42.768;23.404;2023-03-01T02:56:25;0.67;;;0.60;;
11675;SDS011;5894;42.768;23.404;2023-03-01T02:58:54;0.50;;;0.50;;
11675;SDS011;5894;42.768;23.404;2023-03-01T03:01:26;1.97;;;1.00;;
11675;SDS011;5894;42.768;23.404;2023-03-01T03:04:06;1.50;;;1.30;;
11675;SDS011;5894;42.768;23.404;2023-03-01T03:06:35;0.47;;;0.47;;
11675;SDS011;5894;42.768;23.404;2023-03-01T03:09:02;0.70;;;0.67;;
11675;SDS011;5894;42.768;23.404;2023-03-01T03:11:30;0.90;;;0.50;;
11675;SDS011;5894;42.768;23.404;2023-03-01T03:13:59;0.60;;;0.60;;
11675;SDS011;5894;42.768;23.404;2023-03-01T03:16:25;0.63;;;0.60;;
11675;SDS011;5894;42.768;23.404;2023-03-01T03:18:52;0.40;;;0.40;;
11675;SDS011;5894;42.768;23.404;2023-03-01T03:21:19;0.40;;;0.40;;
11675;SDS011;5894;42.768;23.404;2023-03-01T03:23:46;0.60;;;0.60;;
11675;SDS011;5894;42.768;23.404;2023-03-01T03:26:13;0.67;;;0.53;;
11675;SDS011;5894;42.768;23.404;2023-03-01T03:28:40;0.60;;;0.60;;
11675;SDS011;5894;42.768;23.404;2023-03-01T03:31:08;2.23;;;0.90;;
11675;SDS011;5894;42.768;23.404;2023-03-01T03:33:35;1.83;;;1.10;;
11675;SDS011;5894;42.768;23.404;2023-03-01T03:36:02;1.47;;;0.90;;
11675;SDS011;5894;42.768;23.404;2023-03-01T03:38:29;1.10;;;1.00;;
11675;SDS011;5894;42.768;23.404;2023-03-01T03:40:59;1.20;;;1.10;;
11675;SDS011;5894;42.768;23.404;2023-03-01T03:43:27;1.00;;;0.87;;
11675;SDS011;5894;42.768;23.404;2023-03-01T03:45:55;0.53;;;0.50;;
11675;SDS011;5894;42.768;23.404;2023-03-01T03:48:24;0.40;;;0.33;;
11675;SDS011;5894;42.768;23.404;2023-03-01T03:50:52;1.57;;;0.90;;
11675;SDS011;5894;42.768;23.404;2023-03-01T03:53:20;3.10;;;2.30;;
11675;SDS011;5894;42.768;23.404;2023-03-01T03:55:49;0.87;;;0.87;;
11675;SDS011;5894;42.768;23.404;2023-03-01T04:01:18;1.00;;;0.83;;
11675;SDS011;5894;42.768;23.404;2023-03-01T04:04:05;0.70;;;0.70;;
11675;SDS011;5894;42.768;23.404;2023-03-01T04:06:33;0.60;;;0.60;;
11675;SDS011;5894;42.768;23.404;2023-03-01T04:08:59;0.77;;;0.77;;
11675;SDS011;5894;42.768;23.404;2023-03-01T04:11:28;0.77;;;0.77;;
11675;SDS011;5894;42.768;23.404;2023-03-01T04:13:55;0.93;;;0.83;;
11675;SDS011;5894;42.768;23.404;2023-03-01T04:16:25;0.60;;;0.60;;
11675;SDS011;5894;42.768;23.404;2023-03-01T04:18:52;0.60;;;0.60;;
11675;SDS011;5894;42.768;23.404;2023-03-01T04:21:21;1.50;;;1.30;;
11675;SDS011;5894;42.768;23.404;2023-03-01T04:23:48;2.37;;;2.17;;
11675;SDS011;5894;42.768;23.404;2023-03-01T04:26:17;1.30;;;1.20;;
11675;SDS011;5894;42.768;23.404;2023-03-01T04:28:45;0.90;;;0.90;;
11675;SDS011;5894;42.768;23.404;2023-03-01T04:31:16;0.87;;;0.87;;
11675;SDS011;5894;42.768;23.404;2023-03-01T04:33:46;0.80;;;0.80;;
11675;SDS011;5894;42.768;23.404;2023-03-01T04:36:15;2.20;;;0.63;;
11675;SDS011;5894;42.768;23.404;2023-03-01T04:38:44;0.77;;;0.70;;
11675;SDS011;5894;42.768;23.404;2023-03-01T04:41:12;0.63;;;0.63;;
11675;SDS011;5894;42.768;23.404;2023-03-01T04:43:41;1.00;;;1.00;;
11675;SDS011;5894;42.768;23.404;2023-03-01T04:46:08;1.07;;;0.90;;
11675;SDS011;5894;42.768;23.404;2023-03-01T04:48:39;1.30;;;1.20;;
11675;SDS011;5894;42.768;23.404;2023-03-01T04:51:07;1.17;;;1.07;;
11675;SDS011;5894;42.768;23.404;2023-03-01T04:53:34;0.90;;;0.90;;
11675;SDS011;5894;42.768;23.404;2023-03-01T04:56:04;0.83;;;0.83;;
11675;SDS011;5894;42.768;23.404;2023-03-01T04:58:31;1.20;;;1.07;;
11675;SDS011;5894;42.768;23.404;2023-03-01T05:00:58;0.90;;;0.90;;
11675;SDS011;5894;42.768;23.404;2023-03-01T05:03:25;1.83;;;1.20;;
11675;SDS011;5894;42.768;23.404;2023-03-01T05:05:53;0.80;;;0.80;;
11675;SDS011;5894;42.768;23.404;2023-03-01T05:08:20;1.77;;;1.53;;
11675;SDS011;5894;42.768;23.404;2023-03-01T05:10:48;1.93;;;1.40;;
11675;SDS011;5894;42.768;23.404;2023-03-01T05:13:18;1.30;;;1.20;;
11675;SDS011;5894;42.768;23.404;2023-03-01T05:15:47;1.20;;;1.10;;
11675;SDS011;5894;42.768;23.404;2023-03-01T05:18:14;0.83;;;0.60;;
11675;SDS011;5894;42.768;23.404;2023-03-01T05:20:41;0.70;;;0.70;;
11675;SDS011;5894;42.768;23.404;2023-03-01T05:23:09;0.90;;;0.90;;
11675;SDS011;5894;42.768;23.404;2023-03-01T05:25:36;1.80;;;1.00;;
11675;SDS011;5894;42.768;23.404;2023-03-01T05:28:06;0.90;;;0.90;;
11675;SDS011;5894;42.768;23.404;2023-03-01T05:30:36;1.07;;;0.97;;
11675;SDS011;5894;42.768;23.404;2023-03-01T05:33:04;1.03;;;0.60;;
11675;SDS011;5894;42.768;23.404;2023-03-01T05:35:35;0.50;;;0.40;;
11675;SDS011;5894;42.768;23.404;2023-03-01T05:38:02;0.70;;;0.53;;
11675;SDS011;5894;42.768;23.404;2023-03-01T05:40:29;1.30;;;0.83;;
11675;SDS011;5894;42.768;23.404;2023-03-01T05:42:56;1.00;;;1.00;;
11675;SDS011;5894;42.768;23.404;2023-03-01T05:45:23;0.80;;;0.80;;
11675;SDS011;5894;42.768;23.404;2023-03-01T05:47:53;2.40;;;1.20;;
11675;SDS011;5894;42.768;23.404;2023-03-01T05:50:21;3.73;;;2.07;;
11675;SDS011;5894;42.768;23.404;2023-03-01T05:52:51;1.57;;;1.43;;
11675;SDS011;5894;42.768;23.404;2023-03-01T05:55:22;1.30;;;0.73;;
11675;SDS011;5894;42.768;23.404;2023-03-01T05:57:49;0.70;;;0.70;;
11675;SDS011;5894;42.768;23.404;2023-03-01T06:00:17;1.50;;;1.30;;
11675;SDS011;5894;42.768;23.404;2023-03-01T06:02:47;2.13;;;1.83;;
11675;SDS011;5894;42.768;23.404;2023-03-01T06:05:15;1.90;;;1.40;;
11675;SDS011;5894;42.768;23.404;2023-03-01T06:07:42;1.60;;;1.50;;
11675;SDS011;5894;42.768;23.404;2023-03-01T06:10:09;0.77;;;0.77;;
11675;SDS011;5894;42.768;23.404;2023-03-01T06:12:38;1.50;;;1.10;;
11675;SDS011;5894;42.768;23.404;2023-03-01T06:15:06;1.77;;;1.13;;
11675;SDS011;5894;42.768;23.404;2023-03-01T06:17:35;0.63;;;0.63;;
11675;SDS011;5894;42.768;23.404;2023-03-01T06:20:04;1.00;;;0.90;;
11675;SDS011;5894;42.768;23.404;2023-03-01T06:22:34;1.87;;;1.10;;
11675;SDS011;5894;42.768;23.404;2023-03-01T06:25:01;1.70;;;1.30;;
11675;SDS011;5894;42.768;23.404;2023-03-01T06:27:28;2.17;;;1.20;;
11675;SDS011;5894;42.768;23.404;2023-03-01T06:29:55;1.13;;;1.00;;
11675;SDS011;5894;42.768;23.404;2023-03-01T06:32:21;2.57;;;2.00;;
11675;SDS011;5894;42.768;23.404;2023-03-01T06:34:49;4.43;;;2.53;;
11675;SDS011;5894;42.768;23.404;2023-03-01T06:37:15;4.10;;;2.50;;
11675;SDS011;5894;42.768;23.404;2023-03-01T06:39:43;2.63;;;2.00;;
11675;SDS011;5894;42.768;23.404;2023-03-01T06:42:10;5.73;;;2.53;;
11675;SDS011;5894;42.768;23.404;2023-03-01T06:44:37;4.80;;;2.80;;
11675;SDS011;5894;42.768;23.404;2023-03-01T06:47:04;5.40;;;2.50;;
11675;SDS011;5894;42.768;23.404;2023-03-01T06:49:31;5.30;;;3.17;;
11675;SDS011;5894;42.768;23.404;2023-03-01T06:51:58;6.07;;;3.57;;
11675;SDS011;5894;42.768;23.404;2023-03-01T06:54:24;6.30;;;3.20;;
11675;SDS011;5894;42.768;23.404;2023-03-01T06:56:53;5.63;;;2.90;;
11675;SDS011;5894;42.768;23.404;2023-03-01T06:59:20;4.03;;;2.50;;
11675;SDS011;5894;42.768;23.404;2023-03-01T07:01:46;2.63;;;2.30;;
11675;SDS011;5894;42.768;23.404;2023-03-01T07:04:13;7.83;;;2.20;;
11675;SDS011;5894;42.768;23.404;2023-03-01T07:06:40;2.70;;;2.20;;
11675;SDS011;5894;42.768;23.404;2023-03-01T07:09:07;4.90;;;2.73;;
11675;SDS011;5894;42.768;23.404;2023-03-01T07:11:34;6.43;;;2.30;;
11675;SDS011;5894;42.768;23.404;2023-03-01T07:14:02;4.43;;;2.90;;
11675;SDS011;5894;42.768;23.404;2023-03-01T07:16:29;4.17;;;3.20;;
11675;SDS011;5894;42.768;23.404;2023-03-01T07:18:55;4.67;;;2.77;;
11675;SDS011;5894;42.768;23.404;2023-03-01T07:21:22;3.30;;;2.20;;
11675;SDS011;5894;42.768;23.404;2023-03-01T07:23:49;4.00;;;2.40;;
11675;SDS011;5894;42.768;23.404;2023-03-01T07:26:16;3.43;;;2.80;;
11675;SDS011;5894;42.768;23.404;2023-03-01T07:28:42;4.93;;;2.73;;
11675;SDS011;5894;42.768;23.404;2023-03-01T07:31:11;7.70;;;4.80;;
11675;SDS011;5894;42.768;23.404;2023-03-01T07:33:37;4.73;;;2.47;;
11675;SDS011;5894;42.768;23.404;2023-03-01T07:36:04;3.50;;;2.03;;
11675;SDS011;5894;42.768;23.404;2023-03-01T07:38:32;7.63;;;5.60;;
11675;SDS011;5894;42.768;23.404;2023-03-01T07:40:59;10.70;;;8.13;;
11675;SDS011;5894;42.768;23.404;2023-03-01T07:43:27;4.57;;;3.37;;
11675;SDS011;5894;42.768;23.404;2023-03-01T07:45:57;3.43;;;2.70;;
11675;SDS011;5894;42.768;23.404;2023-03-01T07:48:26;2.63;;;2.00;;
11675;SDS011;5894;42.768;23.404;2023-03-01T07:50:53;2.47;;;1.97;;
11675;SDS011;5894;42.768;23.404;2023-03-01T07:53:19;6.03;;;2.40;;
11675;SDS011;5894;42.768;23.404;2023-03-01T07:55:46;2.30;;;1.47;;
11675;SDS011;5894;42.768;23.404;2023-03-01T07:58:13;3.93;;;1.60;;
11675;SDS011;5894;42.768;23.404;2023-03-01T08:00:40;2.13;;;1.67;;
11675;SDS011;5894;42.768;23.404;2023-03-01T08:03:07;4.80;;;1.50;;
11675;SDS011;5894;42.768;23.404;2023-03-01T08:05:35;2.50;;;1.57;;
11675;SDS011;5894;42.768;23.404;2023-03-01T08:08:02;2.33;;;1.20;;
11675;SDS011;5894;42.768;23.404;2023-03-01T08:10:30;2.00;;;1.50;;
11675;SDS011;5894;42.768;23.404;2023-03-01T08:12:57;2.30;;;1.20;;
11675;SDS011;5894;42.768;23.404;2023-03-01T08:15:23;4.33;;;3.27;;
11675;SDS011;5894;42.768;23.404;2023-03-01T08:17:55;31.03;;;18.20;;
11675;SDS011;5894;42.768;23.404;2023-03-01T08:20:26;20.37;;;9.67;;
11675;SDS011;5894;42.768;23.404;2023-03-01T08:22:54;23.60;;;13.17;;
11675;SDS011;5894;42.768;23.404;2023-03-01T08:25:21;7.10;;;4.30;;
11675;SDS011;5894;42.768;23.404;2023-03-01T08:27:47;5.57;;;4.10;;
11675;SDS011;5894;42.768;23.404;2023-03-01T08:30:14;4.30;;;3.47;;
11675;SDS011;5894;42.768;23.404;2023-03-01T08:32:41;3.73;;;2.53;;
11675;SDS011;5894;42.768;23.404;2023-03-01T08:35:08;8.73;;;5.20;;
11675;SDS011;5894;42.768;23.404;2023-03-01T08:37:35;4.23;;;2.70;;
11675;SDS011;5894;42.768;23.404;2023-03-01T08:40:04;11.90;;;7.20;;
11675;SDS011;5894;42.768;23.404;2023-03-01T08:42:35;12.83;;;7.00;;
11675;SDS011;5894;42.768;23.404;2023-03-01T08:45:02;9.47;;;5.67;;
11675;SDS011;5894;42.768;23.404;2023-03-01T08:47:29;7.83;;;4.73;;
11675;SDS011;5894;42.768;23.404;2023-03-01T08:49:56;4.53;;;3.00;;
11675;SDS011;5894;42.768;23.404;2023-03-01T08:52:22;15.30;;;8.23;;
11675;SDS011;5894;42.768;23.404;2023-03-01T08:54:49;13.87;;;7.07;;
11675;SDS011;5894;42.768;23.404;2023-03-01T08:57:18;24.33;;;10.53;;
11675;SDS011;5894;42.768;23.404;2023-03-01T08:59:45;43.37;;;16.27;;
11675;SDS011;5894;42.768;23.404;2023-03-01T09:02:12;27.63;;;12.60;;
11675;SDS011;5894;42.768;23.404;2023-03-01T09:04:40;29.87;;;14.10;;
11675;SDS011;5894;42.768;23.404;2023-03-01T09:07:07;25.00;;;11.93;;
11675;SDS011;5894;42.768;23.404;2023-03-01T09:09:35;11.77;;;5.53;;
11675;SDS011;5894;42.768;23.404;2023-03-01T09:12:03;19.50;;;9.17;;
11675;SDS011;5894;42.768;23.404;2023-03-01T09:14:32;13.47;;;6.47;;
11675;SDS011;5894;42.768;23.404;2023-03-01T09:16:58;5.53;;;3.30;;
11675;SDS011;5894;42.768;23.404;2023-03-01T09:19:28;23.77;;;11.03;;
11675;SDS011;5894;42.768;23.404;2023-03-01T09:21:55;18.07;;;7.53;;
11675;SDS011;5894;42.768;23.404;2023-03-01T09:24:23;10.10;;;5.50;;
11675;SDS011;5894;42.768;23.404;2023-03-01T09:26:52;9.70;;;5.20;;
11675;SDS011;5894;42.768;23.404;2023-03-01T09:29:20;12.77;;;6.77;;
11675;SDS011;5894;42.768;23.404;2023-03-01T09:31:51;9.53;;;4.40;;
11675;SDS011;5894;42.768;23.404;2023-03-01T09:34:20;7.77;;;4.30;;
11675;SDS011;5894;42.768;23.404;2023-03-01T09:36:48;12.53;;;6.07;;
11675;SDS011;5894;42.768;23.404;2023-03-01T09:39:16;8.33;;;3.80;;
11675;SDS011;5894;42.768;23.404;2023-03-01T09:41:45;6.30;;;3.40;;
11675;SDS011;5894;42.768;23.404;2023-03-01T09:44:18;5.00;;;3.27;;
11675;SDS011;5894;42.768;23.404;2023-03-01T09:46:56;5.97;;;3.23;;
11675;SDS011;5894;42.768;23.404;2023-03-01T09:49:24;3.73;;;2.70;;
11675;SDS011;5894;42.768;23.404;2023-03-01T09:51:54;5.23;;;3.07;;
11675;SDS011;5894;42.768;23.404;2023-03-01T09:54:25;3.60;;;2.67;;
11675;SDS011;5894;42.768;23.404;2023-03-01T09:56:56;4.63;;;2.77;;
11675;SDS011;5894;42.768;23.404;2023-03-01T09:59:32;2.93;;;2.50;;
11675;SDS011;5894;42.768;23.404;2023-03-01T10:02:14;3.33;;;1.53;;
11675;SDS011;5894;42.768;23.404;2023-03-01T10:04:50;2.87;;;2.07;;
11675;SDS011;5894;42.768;23.404;2023-03-01T10:07:27;9.47;;;4.20;;
11675;SDS011;5894;42.768;23.404;2023-03-01T10:09:59;12.60;;;6.63;;
11675;SDS011;5894;42.768;23.404;2023-03-01T10:12:32;3.23;;;2.40;;
11675;SDS011;5894;42.768;23.404;2023-03-01T10:15:04;3.67;;;2.60;;
11675;SDS011;5894;42.768;23.404;2023-03-01T10:17:37;4.53;;;2.80;;
11675;SDS011;5894;42.768;23.404;2023-03-01T10:20:18;6.33;;;3.97;;
11675;SDS011;5894;42.768;23.404;2023-03-01T10:22:48;5.00;;;3.70;;
11675;SDS011;5894;42.768;23.404;2023-03-01T10:25:20;6.53;;;4.60;;
11675;SDS011;5894;42.768;23.404;2023-03-01T10:28:04;5.43;;;2.20;;
11675;SDS011;5894;42.768;23.404;2023-03-01T10:30:37;3.60;;;2.53;;
11675;SDS011;5894;42.768;23.404;2023-03-01T10:33:11;7.27;;;4.10;;
11675;SDS011;5894;42.768;23.404;2023-03-01T10:35:43;3.70;;;2.97;;
11675;SDS011;5894;42.768;23.404;2023-03-01T10:38:10;4.07;;;2.70;;
11675;SDS011;5894;42.768;23.404;2023-03-01T10:40:49;5.70;;;3.10;;
11675;SDS011;5894;42.768;23.404;2023-03-01T10:43:18;3.33;;;2.40;;
11675;SDS011;5894;42.768;23.404;2023-03-01T10:45:46;5.83;;;3.50;;
11675;SDS011;5894;42.768;23.404;2023-03-01T10:48:16;6.07;;;2.63;;
11675;SDS011;5894;42.768;23.404;2023-03-01T10:50:45;4.70;;;1.73;;
11675;SDS011;5894;42.768;23.404;2023-03-01T10:53:20;4.83;;;2.93;;
11675;SDS011;5894;42.768;23.404;2023-03-01T10:55:58;5.30;;;2.60;;
11675;SDS011;5894;42.768;23.404;2023-03-01T10:58:27;8.10;;;4.43;;
11675;SDS011;5894;42.768;23.404;2023-03-01T11:00:56;19.40;;;10.50;;
11675;SDS011;5894;42.768;23.404;2023-03-01T11:03:26;12.73;;;8.03;;
11675;SDS011;5894;42.768;23.404;2023-03-01T11:05:58;9.73;;;4.63;;
11675;SDS011;5894;42.768;23.404;2023-03-01T11:08:38;4.60;;;2.80;;
11675;SDS011;5894;42.768;23.404;2023-03-01T11:13:54;6.90;;;4.47;;
11675;SDS011;5894;42.768;23.404;2023-03-01T11:16:24;7.60;;;5.07;;
11675;SDS011;5894;42.768;23.404;2023-03-01T11:18:59;4.17;;;3.10;;
11675;SDS011;5894;42.768;23.404;2023-03-01T11:21:30;3.67;;;2.70;;
11675;SDS011;5894;42.768;23.404;2023-03-01T11:24:00;5.10;;;3.00;;
11675;SDS011;5894;42.768;23.404;2023-03-01T11:26:29;2.03;;;1.60;;
11675;SDS011;5894;42.768;23.404;2023-03-01T11:29:03;6.00;;;3.60;;
11675;SDS011;5894;42.768;23.404;2023-03-01T11:31:33;6.10;;;3.13;;
11675;SDS011;5894;42.768;23.404;2023-03-01T11:34:05;6.33;;;3.53;;
11675;SDS011;5894;42.768;23.404;2023-03-01T11:36:40;4.47;;;3.10;;
11675;SDS011;5894;42.768;23.404;2023-03-01T11:39:15;15.10;;;8.77;;
11675;SDS011;5894;42.768;23.404;2023-03-01T11:41:50;11.83;;;5.67;;
11675;SDS011;5894;42.768;23.404;2023-03-01T11:44:26;23.00;;;10.53;;
11675;SDS011;5894;42.768;23.404;2023-03-01T11:47:03;5.30;;;3.17;;
11675;SDS011;5894;42.768;23.404;2023-03-01T11:52:43;11.50;;;7.70;;
11675;SDS011;5894;42.768;23.404;2023-03-01T11:55:32;38.67;;;19.37;;
11675;SDS011;5894;42.768;23.404;2023-03-01T11:58:25;14.33;;;7.17;;
11675;SDS011;5894;42.768;23.404;2023-03-01T12:01:07;13.00;;;7.37;;
11675;SDS011;5894;42.768;23.404;2023-03-01T12:06:49;10.03;;;5.73;;
11675;SDS011;5894;42.768;23.404;2023-03-01T12:09:29;28.60;;;13.40;;
11675;SDS011;5894;42.768;23.404;2023-03-01T12:12:14;22.60;;;10.10;;
11675;SDS011;5894;42.768;23.404;2023-03-01T12:17:57;72.93;;;33.27;;
11675;SDS011;5894;42.768;23.404;2023-03-01T12:20:36;19.03;;;8.87;;
11675;SDS011;5894;42.768;23.404;2023-03-01T12:26:17;9.27;;;4.80;;
11675;SDS011;5894;42.768;23.404;2023-03-01T12:28:59;4.37;;;2.93;;
11675;SDS011;5894;42.768;23.404;2023-03-01T12:31:50;3.80;;;2.67;;
11675;SDS011;5894;42.768;23.404;2023-03-01T12:37:50;3.43;;;2.20;;
11675;SDS011;5894;42.768;23.404;2023-03-01T12:40:27;1.67;;;1.30;;
11675;SDS011;5894;42.768;23.404;2023-03-01T12:43:07;3.57;;;1.67;;
11675;SDS011;5894;42.768;23.404;2023-03-01T12:45:46;4.90;;;1.93;;
11675;SDS011;5894;42.768;23.404;2023-03-01T12:48:31;2.43;;;1.40;;
11675;SDS011;5894;42.768;23.404;2023-03-01T12:51:07;1.83;;;1.50;;
11675;SDS011;5894;42.768;23.404;2023-03-01T12:53:39;18.83;;;2.27;;
11675;SDS011;5894;42.768;23.404;2023-03-01T12:56:09;18.20;;;8.00;;
11675;SDS011;5894;42.768;23.404;2023-03-01T12:58:39;12.37;;;5.83;;
11675;SDS011;5894;42.768;23.404;2023-03-01T13:01:15;5.10;;;2.13;;
11675;SDS011;5894;42.768;23.404;2023-03-01T13:03:57;3.00;;;1.47;;
11675;SDS011;5894;42.768;23.404;2023-03-01T13:06:38;2.27;;;1.50;;
11675;SDS011;5894;42.768;23.404;2023-03-01T13:09:13;6.77;;;1.90;;
11675;SDS011;5894;42.768;23.404;2023-03-01T13:11:46;4.83;;;2.47;;
11675;SDS011;5894;42.768;23.404;2023-03-01T13:17:02;3.70;;;2.27;;
11675;SDS011;5894;42.768;23.404;2023-03-01T13:19:29;9.90;;;6.00;;
11675;SDS011;5894;42.768;23.404;2023-03-01T13:21:57;7.03;;;4.30;;
11675;SDS011;5894;42.768;23.404;2023-03-01T13:24:26;11.37;;;5.60;;
11675;SDS011;5894;42.768;23.404;2023-03-01T13:29:54;8.10;;;5.90;;
11675;SDS011;5894;42.768;23.404;2023-03-01T13:32:25;9.17;;;6.30;;
11675;SDS011;5894;42.768;23.404;2023-03-01T13:34:55;10.20;;;6.50;;
11675;SDS011;5894;42.768;23.404;2023-03-01T13:37:28;6.97;;;4.60;;
11675;SDS011;5894;42.768;23.404;2023-03-01T13:40:00;14.33;;;6.10;;
11675;SDS011;5894;42.768;23.404;2023-03-01T13:42:36;9.57;;;5.10;;
11675;SDS011;5894;42.768;23.404;2023-03-01T13:45:14;8.73;;;3.73;;
11675;SDS011;5894;42.768;23.404;2023-03-01T13:47:45;14.27;;;6.53;;
11675;SDS011;5894;42.768;23.404;2023-03-01T13:50:18;22.43;;;9.80;;
11675;SDS011;5894;42.768;23.404;2023-03-01T13:52:48;26.87;;;11.83;;
11675;SDS011;5894;42.768;23.404;2023-03-01T13:55:19;19.10;;;8.70;;
11675;SDS011;5894;42.768;23.404;2023-03-01T13:57:53;20.80;;;8.17;;
11675;SDS011;5894;42.768;23.404;2023-03-01T14:00:30;15.13;;;6.53;;
11675;SDS011;5894;42.768;23.404;2023-03-01T14:03:02;18.33;;;7.67;;
11675;SDS011;5894;42.768;23.404;2023-03-01T14:05:32;20.67;;;8.47;;
11675;SDS011;5894;42.768;23.404;2023-03-01T14:08:01;19.60;;;7.67;;
11675;SDS011;5894;42.768;23.404;2023-03-01T14:10:35;14.17;;;5.97;;
11675;SDS011;5894;42.768;23.404;2023-03-01T14:13:13;31.90;;;13.27;;
11675;SDS011;5894;42.768;23.404;2023-03-01T14:15:56;25.27;;;8.80;;
11675;SDS011;5894;42.768;23.404;2023-03-01T14:18:39;31.53;;;15.43;;
11675;SDS011;5894;42.768;23.404;2023-03-01T14:21:13;12.80;;;6.83;;
11675;SDS011;5894;42.768;23.404;2023-03-01T14:23:42;9.17;;;4.87;;
11675;SDS011;5894;42.768;23.404;2023-03-01T14:26:09;5.77;;;3.27;;
11675;SDS011;5894;42.768;23.404;2023-03-01T14:28:38;33.57;;;15.47;;
11675;SDS011;5894;42.768;23.404;2023-03-01T14:34:05;46.77;;;19.03;;
11675;SDS011;5894;42.768;23.404;2023-03-01T14:36:33;3.80;;;2.33;;
11675;SDS011;5894;42.768;23.404;2023-03-01T14:39:00;4.90;;;2.40;;
11675;SDS011;5894;42.768;23.404;2023-03-01T14:41:32;7.63;;;3.57;;
11675;SDS011;5894;42.768;23.404;2023-03-01T14:44:05;8.37;;;2.63;;
11675;SDS011;5894;42.768;23.404;2023-03-01T14:46:38;7.10;;;3.13;;
11675;SDS011;5894;42.768;23.404;2023-03-01T14:49:09;4.87;;;2.83;;
11675;SDS011;5894;42.768;23.404;2023-03-01T14:51:40;7.10;;;2.90;;
11675;SDS011;5894;42.768;23.404;2023-03-01T14:54:18;4.40;;;2.60;;
11675;SDS011;5894;42.768;23.404;2023-03-01T14:56:50;6.17;;;3.70;;
11675;SDS011;5894;42.768;23.404;2023-03-01T14:59:21;11.60;;;4.27;;
11675;SDS011;5894;42.768;23.404;2023-03-01T15:01:49;8.27;;;3.87;;
11675;SDS011;5894;42.768;23.404;2023-03-01T15:04:17;4.60;;;2.77;;
11675;SDS011;5894;42.768;23.404;2023-03-01T15:06:46;7.53;;;2.93;;
11675;SDS011;5894;42.768;23.404;2023-03-01T15:09:16;8.33;;;3.70;;
11675;SDS011;5894;42.768;23.404;2023-03-01T15:11:44;6.20;;;2.60;;
11675;SDS011;5894;42.768;23.404;2023-03-01T15:17:20;5.53;;;3.20;;
11675;SDS011;5894;42.768;23.404;2023-03-01T15:19:54;3.37;;;2.10;;
11675;SDS011;5894;42.768;23.404;2023-03-01T15:22:21;6.30;;;2.40;;
11675;SDS011;5894;42.768;23.404;2023-03-01T15:24:51;5.00;;;2.50;;
11675;SDS011;5894;42.768;23.404;2023-03-01T15:27:19;8.70;;;2.83;;
11675;SDS011;5894;42.768;23.404;2023-03-01T15:29:50;4.43;;;2.47;;
11675;SDS011;5894;42.768;23.404;2023-03-01T15:32:24;3.63;;;2.17;;
11675;SDS011;5894;42.768;23.404;2023-03-01T15:34:53;4.40;;;2.20;;
11675;SDS011;5894;42.768;23.404;2023-03-01T15:37:38;6.73;;;2.93;;
11675;SDS011;5894;42.768;23.404;2023-03-01T15:40:20;10.43;;;3.00;;